Time;durP1;ratioP1;P1;durP2;ratioP2;P2;SDS_P1;SDS_P2;PMS_P1;PMS_P2;Temp;Humidity;BMP_temperature;BMP_pressure;BME280_temperature;BME280_humidity;BME280_pressure;Samples;Min_cycle;Max_cycle;Signal;HPM_P1;HPM_P2
2022/07/12 00:32:21;;;;;;;0.80;0.63;;;16.40;77.30;;;;;;5769177;24;20046;-73
2022/07/12 00:34:47;;;;;;;;;;;16.30;77.30;;;;;;5871626;24;20025;-73
2022/07/12 00:37:13;;;;;;;1.23;0.60;;;16.30;77.20;;;;;;5893769;24;19911;-75
2022/07/12 00:39:38;;;;;;;1.05;0.60;;;16.30;77.30;;;;;;5885278;24;20017;-74
2022/07/12 00:42:04;;;;;;;1.17;0.80;;;16.30;77.40;;;;;;5979133;24;20016;-74
2022/07/12 00:44:33;;;;;;;0.98;0.63;;;16.20;77.50;;;;;;5955736;24;20054;-74
2022/07/12 00:47:01;;;;;;;0.98;0.60;;;16.20;77.60;;;;;;5957182;24;20203;-74
2022/07/12 00:49:27;;;;;;;0.90;0.70;;;16.20;77.80;;;;;;6035647;23;20025;-74
2022/07/12 00:51:54;;;;;;;0.50;0.50;;;16.20;77.90;;;;;;6093372;23;20332;-74
2022/07/12 00:54:20;;;;;;;0.45;0.45;;;16.20;77.90;;;;;;6142863;23;20045;-74
2022/07/12 00:56:47;;;;;;;0.75;0.60;;;16.20;78.00;;;;;;6127039;23;20021;-75
2022/07/12 00:59:13;;;;;;;0.80;0.60;;;16.10;78.00;;;;;;6151340;23;20013;-74
2022/07/12 01:01:41;;;;;;;1.55;0.80;;;16.10;78.10;;;;;;6152077;23;20481;-74
2022/07/12 01:04:07;;;;;;;1.10;0.52;;;16.10;78.20;;;;;;6126811;23;20017;-74
2022/07/12 01:06:33;;;;;;;0.63;0.60;;;16.20;78.20;;;;;;6151714;23;20009;-75
2022/07/12 01:09:00;;;;;;;0.77;0.65;;;16.10;78.30;;;;;;6205602;23;20027;-74
2022/07/12 01:11:26;;;;;;;0.73;0.50;;;16.10;78.30;;;;;;6244092;23;20016;-74
2022/07/12 01:13:55;;;;;;;0.88;0.40;;;16.10;78.30;;;;;;6244150;23;20013;-75
2022/07/12 01:16:21;;;;;;;0.77;0.60;;;16.00;78.40;;;;;;6244119;23;20031;-75
2022/07/12 01:18:47;;;;;;;0.50;0.50;;;16.00;78.40;;;;;;6244293;23;20146;-74
2022/07/12 01:21:20;;;;;;;1.02;0.70;;;15.90;78.40;;;;;;6242534;23;20401;-75
2022/07/12 01:23:47;;;;;;;0.30;0.30;;;16.00;78.60;;;;;;6244160;22;20012;-75
2022/07/12 01:26:12;;;;;;;0.57;0.50;;;16.00;78.60;;;;;;6243995;23;20043;-75
2022/07/12 01:28:38;;;;;;;0.47;0.40;;;15.90;78.50;;;;;;6244778;23;20004;-75
2022/07/12 01:31:05;;;;;;;0.45;0.45;;;15.90;78.60;;;;;;6243205;23;20012;-75
2022/07/12 01:33:31;;;;;;;0.40;0.40;;;15.90;78.70;;;;;;6243792;23;20012;-75
2022/07/12 01:35:57;;;;;;;0.40;0.40;;;15.80;78.70;;;;;;6242521;23;20106;-75
2022/07/12 01:38:23;;;;;;;0.35;0.35;;;15.90;78.80;;;;;;6244570;22;20012;-75
2022/07/12 01:40:49;;;;;;;0.60;0.40;;;15.80;78.70;;;;;;6242410;23;20109;-75
2022/07/12 01:43:15;;;;;;;0.47;0.40;;;15.80;78.80;;;;;;6243779;23;20016;-75
2022/07/12 01:45:41;;;;;;;0.70;0.50;;;15.80;78.90;;;;;;6244134;22;20035;-75
2022/07/12 01:48:07;;;;;;;0.77;0.52;;;15.80;78.90;;;;;;6244362;22;20027;-75
2022/07/12 01:50:34;;;;;;;0.98;0.57;;;15.80;79.00;;;;;;6241953;23;20336;-75
2022/07/12 01:53:00;;;;;;;0.70;0.60;;;15.70;79.00;;;;;;6245133;23;20008;-75
2022/07/12 01:55:27;;;;;;;0.73;0.60;;;15.70;79.10;;;;;;6245437;22;20143;-75
2022/07/12 01:57:53;;;;;;;0.40;0.40;;;15.70;79.10;;;;;;6245094;22;20012;-75
2022/07/12 02:00:19;;;;;;;0.50;0.50;;;15.70;79.10;;;;;;6245305;22;20035;-75
2022/07/12 02:02:46;;;;;;;1.40;0.63;;;15.70;79.10;;;;;;6244279;23;20008;-75
2022/07/12 02:05:12;;;;;;;0.85;0.52;;;15.70;79.20;;;;;;6244226;23;20012;-75
2022/07/12 02:07:39;;;;;;;1.23;0.60;;;15.60;79.20;;;;;;6243394;23;20008;-75
2022/07/12 02:10:07;;;;;;;0.50;0.50;;;15.60;79.20;;;;;;6245381;22;20008;-75
2022/07/12 02:12:33;;;;;;;0.88;0.55;;;15.60;79.30;;;;;;6245673;22;20023;-75
2022/07/12 02:15:00;;;;;;;0.68;0.60;;;15.60;79.30;;;;;;6243555;23;20083;-75
2022/07/12 02:17:25;;;;;;;1.15;0.60;;;15.60;79.40;;;;;;6245306;23;20451;-75
2022/07/12 02:19:52;;;;;;;0.68;0.50;;;15.50;79.40;;;;;;6245378;23;20008;-75
2022/07/12 02:22:18;;;;;;;0.32;0.32;;;15.40;79.40;;;;;;6244950;22;20031;-75
2022/07/12 02:24:44;;;;;;;0.50;0.43;;;15.50;79.50;;;;;;6245411;23;20081;-75
2022/07/12 02:27:09;;;;;;;0.50;0.50;;;15.50;79.50;;;;;;6245617;23;20008;-75
2022/07/12 02:29:35;;;;;;;0.40;0.40;;;15.60;79.60;;;;;;6243507;23;20007;-75
2022/07/12 02:32:02;;;;;;;0.50;0.50;;;15.40;79.50;;;;;;6245078;22;20100;-75
2022/07/12 02:34:28;;;;;;;0.82;0.40;;;15.50;79.60;;;;;;6245176;22;20390;-75
2022/07/12 02:36:54;;;;;;;0.40;0.40;;;15.50;79.70;;;;;;6243584;23;20016;-75
2022/07/12 02:39:19;;;;;;;1.65;0.73;;;15.40;79.70;;;;;;6243714;23;20012;-75
2022/07/12 02:41:45;;;;;;;1.13;0.60;;;15.40;79.70;;;;;;6244939;23;20004;-75
2022/07/12 02:44:11;;;;;;;1.40;0.88;;;15.40;79.70;;;;;;6245728;23;20012;-75
2022/07/12 02:46:36;;;;;;;1.30;0.80;;;15.40;79.70;;;;;;6245067;22;20012;-75
2022/07/12 02:49:02;;;;;;;1.63;0.82;;;15.40;79.70;;;;;;6245082;23;20004;-75
2022/07/12 02:51:28;;;;;;;2.05;0.88;;;15.40;79.80;;;;;;6245157;23;20009;-75
2022/07/12 02:53:54;;;;;;;2.88;1.10;;;15.30;79.80;;;;;;6245094;23;20321;-75
2022/07/12 02:56:19;;;;;;;1.67;0.70;;;15.30;79.90;;;;;;6245236;23;20044;-76
2022/07/12 02:58:45;;;;;;;2.55;1.10;;;15.30;79.90;;;;;;6243620;23;20340;-75
2022/07/12 03:01:11;;;;;;;2.70;0.95;;;15.20;79.90;;;;;;6245229;23;20035;-75
2022/07/12 03:03:37;;;;;;;1.52;1.00;;;15.30;80.00;;;;;;6244919;23;20456;-75
2022/07/12 03:06:03;;;;;;;1.92;1.10;;;15.30;80.00;;;;;;6244704;23;20011;-75
2022/07/12 03:08:29;;;;;;;1.17;0.60;;;15.20;80.00;;;;;;6244876;22;20425;-75
2022/07/12 03:10:54;;;;;;;1.58;0.80;;;15.30;80.10;;;;;;6243276;23;20008;-75
2022/07/12 03:13:20;;;;;;;1.77;0.80;;;15.20;80.10;;;;;;6244741;23;20087;-75
2022/07/12 03:15:46;;;;;;;1.48;1.00;;;15.30;80.20;;;;;;6244765;23;20000;-75
2022/07/12 03:18:13;;;;;;;1.27;0.70;;;15.20;80.20;;;;;;6244905;23;20011;-75
2022/07/12 03:20:39;;;;;;;1.48;0.90;;;15.20;80.20;;;;;;6245221;22;20061;-75
2022/07/12 03:23:04;;;;;;;1.02;0.80;;;15.20;80.20;;;;;;6243294;23;20012;-75
2022/07/12 03:25:30;;;;;;;1.98;0.90;;;15.10;80.10;;;;;;6244657;23;20447;-75
2022/07/12 03:27:56;;;;;;;1.65;0.82;;;15.20;80.10;;;;;;6242987;23;20083;-75
2022/07/12 03:30:21;;;;;;;2.05;0.90;;;15.20;80.10;;;;;;6243762;23;20494;-75
2022/07/12 03:32:49;;;;;;;1.17;0.65;;;15.30;80.20;;;;;;6217939;23;20142;-75
2022/07/12 03:35:15;;;;;;;1.13;0.60;;;15.10;80.20;;;;;;6244639;22;20135;-75
2022/07/12 03:37:48;;;;;;;1.25;0.65;;;15.20;80.20;;;;;;6243072;23;20062;-75
2022/07/12 03:40:15;;;;;;;0.60;0.55;;;15.10;80.30;;;;;;6244613;23;20432;-76
2022/07/12 03:42:42;;;;;;;1.25;0.70;;;15.10;80.30;;;;;;6243087;23;20069;-75
2022/07/12 03:45:09;;;;;;;1.15;0.60;;;15.10;80.30;;;;;;6245223;22;20015;-75
2022/07/12 03:47:35;;;;;;;0.98;0.65;;;15.10;80.40;;;;;;6243831;23;20054;-75
2022/07/12 03:50:04;;;;;;;1.05;0.70;;;15.10;80.40;;;;;;6243177;23;20008;-75
2022/07/12 03:52:31;;;;;;;1.08;0.70;;;15.10;80.40;;;;;;6244668;22;20468;-75
2022/07/12 03:54:57;;;;;;;1.08;0.63;;;15.00;80.40;;;;;;6245188;22;20023;-75
2022/07/12 03:57:24;;;;;;;1.17;0.47;;;15.00;80.40;;;;;;6245196;22;20016;-75
2022/07/12 03:59:50;;;;;;;0.80;0.50;;;15.10;80.40;;;;;;6245095;22;20066;-75
2022/07/12 04:02:16;;;;;;;0.68;0.55;;;15.00;80.40;;;;;;6243195;23;20012;-75
2022/07/12 04:04:42;;;;;;;0.50;0.50;;;15.10;80.50;;;;;;6245208;22;20012;-75
2022/07/12 04:07:07;;;;;;;0.60;0.50;;;15.00;80.40;;;;;;6245573;23;20028;-75
2022/07/12 04:09:33;;;;;;;0.60;0.50;;;15.10;80.40;;;;;;6243793;23;20310;-75
2022/07/12 04:11:59;;;;;;;1.30;0.82;;;15.10;80.40;;;;;;6245193;23;20091;-75
2022/07/12 04:14:25;;;;;;;0.55;0.55;;;15.10;80.40;;;;;;6244560;23;20091;-75
2022/07/12 04:16:51;;;;;;;0.50;0.50;;;15.10;80.40;;;;;;6244799;22;20008;-76
2022/07/12 04:19:16;;;;;;;0.50;0.50;;;15.20;80.40;;;;;;6245492;23;20058;-75
2022/07/12 04:21:42;;;;;;;0.43;0.43;;;15.20;80.40;;;;;;6243962;23;20012;-75
2022/07/12 04:24:08;;;;;;;0.50;0.50;;;15.20;80.40;;;;;;6243306;23;20428;-76
2022/07/12 04:26:34;;;;;;;0.43;0.43;;;15.20;80.30;;;;;;6243250;23;20015;-76
2022/07/12 04:28:59;;;;;;;0.50;0.50;;;15.20;80.40;;;;;;6244628;23;20019;-75
2022/07/12 04:31:25;;;;;;;0.60;0.60;;;15.30;80.50;;;;;;6218161;23;20080;-75
2022/07/12 04:33:51;;;;;;;0.60;0.60;;;15.10;80.30;;;;;;6244798;23;20015;-76
2022/07/12 04:36:17;;;;;;;0.50;0.50;;;15.20;80.40;;;;;;6243303;23;20083;-76
2022/07/12 04:38:43;;;;;;;0.40;0.40;;;15.30;80.50;;;;;;6243267;23;20035;-76
2022/07/12 04:41:09;;;;;;;0.30;0.30;;;15.30;80.50;;;;;;6244609;23;20047;-75
2022/07/12 04:43:34;;;;;;;0.52;0.52;;;15.30;80.50;;;;;;6245180;22;20310;-76
2022/07/12 04:46:09;;;;;;;0.50;0.40;;;15.30;80.40;;;;;;6244712;23;20427;-75
2022/07/12 04:48:35;;;;;;;0.43;0.43;;;15.30;80.50;;;;;;6217715;23;20430;-75
2022/07/12 04:51:01;;;;;;;0.30;0.30;;;15.30;80.40;;;;;;6241250;23;20090;-75
2022/07/12 04:53:27;;;;;;;0.40;0.40;;;15.40;80.40;;;;;;6243839;23;20011;-75
2022/07/12 04:55:55;;;;;;;0.45;0.45;;;15.40;80.30;;;;;;6242949;23;20008;-75
2022/07/12 04:58:21;;;;;;;0.30;0.30;;;15.50;80.30;;;;;;6244630;22;20499;-75
2022/07/12 05:00:47;;;;;;;0.40;0.40;;;15.50;80.30;;;;;;6245205;22;20083;-76
2022/07/12 05:03:13;;;;;;;0.45;0.45;;;15.60;80.30;;;;;;6244639;23;20004;-78
2022/07/12 05:05:39;;;;;;;0.40;0.40;;;15.60;80.20;;;;;;6244403;23;20019;-75
2022/07/12 05:08:04;;;;;;;0.40;0.40;;;15.70;80.20;;;;;;6244447;23;20345;-75
2022/07/12 05:10:30;;;;;;;0.55;0.55;;;15.80;80.10;;;;;;6244016;23;20015;-76
2022/07/12 05:12:56;;;;;;;0.45;0.40;;;15.80;80.10;;;;;;6244580;23;20480;-75
2022/07/12 05:15:22;;;;;;;0.52;0.40;;;15.90;80.00;;;;;;6242576;23;20012;-76
2022/07/12 05:17:48;;;;;;;0.40;0.40;;;15.90;80.00;;;;;;6244879;23;20320;-75
2022/07/12 05:20:13;;;;;;;0.50;0.50;;;16.00;80.00;;;;;;6244483;23;20094;-75
2022/07/12 05:22:41;;;;;;;0.50;0.50;;;16.10;79.90;;;;;;6244208;23;20035;-74
2022/07/12 05:25:08;;;;;;;0.60;0.60;;;16.30;79.80;;;;;;6244444;22;20027;-74
2022/07/12 05:27:35;;;;;;;0.38;0.38;;;16.40;79.60;;;;;;6245295;22;20011;-75
2022/07/12 05:30:01;;;;;;;0.50;0.50;;;16.40;79.40;;;;;;6244113;23;20009;-74
2022/07/12 05:32:27;;;;;;;0.60;0.60;;;16.60;79.30;;;;;;6246340;23;20028;-76
2022/07/12 05:34:53;;;;;;;0.55;0.55;;;16.70;79.20;;;;;;6245971;22;20082;-76
2022/07/12 05:37:18;;;;;;;0.60;0.60;;;16.80;79.00;;;;;;6246560;23;20008;-76
2022/07/12 05:39:44;;;;;;;0.65;0.65;;;16.90;78.90;;;;;;6244303;23;20444;-76
2022/07/12 05:42:10;;;;;;;0.55;0.55;;;17.00;78.80;;;;;;6246352;23;20012;-76
2022/07/12 05:44:36;;;;;;;0.70;0.70;;;17.10;78.70;;;;;;6247077;23;20035;-75
2022/07/12 05:47:02;;;;;;;0.63;0.63;;;17.10;78.60;;;;;;6249594;22;20015;-75
2022/07/12 05:49:28;;;;;;;0.80;0.80;;;17.20;78.70;;;;;;6247856;22;20008;-75
2022/07/12 05:54:32;;;;;;;0.55;0.55;;;17.40;79.00;;;;;;6249537;22;20090;-75
2022/07/12 05:56:58;;;;;;;0.60;0.60;;;17.40;79.00;;;;;;6249824;22;20016;-75
2022/07/12 05:59:24;;;;;;;0.95;0.70;;;17.50;78.90;;;;;;6250102;23;20420;-75
2022/07/12 06:01:50;;;;;;;0.95;0.90;;;17.60;78.80;;;;;;6246411;23;20015;-76
2022/07/12 06:04:15;;;;;;;0.60;0.60;;;17.70;78.80;;;;;;6245603;23;20012;-76
2022/07/12 06:06:41;;;;;;;0.52;0.52;;;17.70;78.60;;;;;;6245672;23;20011;-76
2022/07/12 06:09:07;;;;;;;0.68;0.68;;;17.80;78.60;;;;;;6244728;23;20004;-76
2022/07/12 06:11:33;;;;;;;0.50;0.50;;;18.00;78.60;;;;;;6243997;23;20058;-76
2022/07/12 06:13:59;;;;;;;0.63;0.63;;;18.00;78.60;;;;;;6245625;22;20012;-76
2022/07/12 06:16:25;;;;;;;0.60;0.60;;;18.10;78.60;;;;;;6245362;23;20008;-75
2022/07/12 06:18:50;;;;;;;0.55;0.55;;;18.10;78.50;;;;;;6244076;23;20012;-75
2022/07/12 06:21:16;;;;;;;0.77;0.77;;;18.30;78.50;;;;;;6245465;23;20335;-75
2022/07/12 06:23:42;;;;;;;0.68;0.60;;;18.40;78.50;;;;;;6243707;23;20009;-75
2022/07/12 06:26:07;;;;;;;0.47;0.47;;;18.40;78.40;;;;;;6245204;23;20091;-75
2022/07/12 06:28:33;;;;;;;0.50;0.50;;;18.50;78.30;;;;;;6218513;23;20004;-75
2022/07/12 06:31:00;;;;;;;0.40;0.40;;;18.60;78.20;;;;;;6245460;23;20428;-75
2022/07/12 06:33:26;;;;;;;0.40;0.40;;;18.70;78.20;;;;;;6243636;23;20015;-75
2022/07/12 06:35:52;;;;;;;0.70;0.60;;;18.70;78.10;;;;;;6245250;23;20004;-75
2022/07/12 06:38:17;;;;;;;0.47;0.47;;;18.90;78.20;;;;;;6245286;23;20008;-75
2022/07/12 06:40:43;;;;;;;0.40;0.40;;;18.90;78.00;;;;;;6243579;23;20016;-76
2022/07/12 06:43:11;;;;;;;0.68;0.40;;;19.00;77.90;;;;;;6245718;23;20011;-76
2022/07/12 06:45:37;;;;;;;0.63;0.63;;;19.00;77.90;;;;;;6245454;22;20015;-76
2022/07/12 06:48:04;;;;;;;0.60;0.60;;;19.10;77.90;;;;;;6243612;23;20004;-76
2022/07/12 06:50:30;;;;;;;0.70;0.70;;;19.10;77.90;;;;;;6245326;22;20015;-76
2022/07/12 06:53:14;;;;;;;0.57;0.57;;;19.20;78.00;;;;;;6245489;23;20008;-75
2022/07/12 06:56:17;;;;;;;0.60;0.60;;;19.20;78.10;;;;;;6122506;23;20038;-76
2022/07/12 06:58:45;;;;;;;0.45;0.45;;;19.20;78.10;;;;;;6055969;23;20434;-76
2022/07/12 07:01:11;;;;;;;1.08;0.93;;;19.30;78.10;;;;;;6069440;23;20065;-75
2022/07/12 07:03:37;;;;;;;1.70;0.75;;;19.30;78.00;;;;;;6069676;23;20024;-75
2022/07/12 07:06:02;;;;;;;0.60;0.60;;;19.50;78.00;;;;;;6069695;23;20479;-76
2022/07/12 07:08:28;;;;;;;0.57;0.57;;;19.80;77.70;;;;;;6070068;23;20391;-75
2022/07/12 07:10:54;;;;;;;0.50;0.50;;;20.00;77.40;;;;;;6069701;23;20479;-75
2022/07/12 07:13:20;;;;;;;0.40;0.40;;;20.10;77.00;;;;;;6093776;23;20010;-76
2022/07/12 07:15:45;;;;;;;0.68;0.60;;;20.30;76.80;;;;;;6069503;23;20073;-75
2022/07/12 07:18:11;;;;;;;0.60;0.60;;;20.60;76.50;;;;;;6070080;23;20010;-76
2022/07/12 07:20:40;;;;;;;1.33;0.65;;;20.70;76.10;;;;;;6112981;23;20557;-75
2022/07/12 07:23:07;;;;;;;0.40;0.40;;;20.90;76.00;;;;;;6099388;23;20014;-75
2022/07/12 07:25:32;;;;;;;1.73;0.57;;;21.20;75.90;;;;;;6083208;23;20014;-73
2022/07/12 07:28:00;;;;;;;0.82;0.50;;;21.40;75.50;;;;;;6212168;23;20484;-73
2022/07/12 07:33:10;;;;;;;0.45;0.45;;;22.00;74.90;;;;;;6242369;23;20016;-75
2022/07/12 07:35:37;;;;;;;0.60;0.60;;;22.20;74.50;;;;;;6245159;22;20070;-75
2022/07/12 07:38:03;;;;;;;0.57;0.50;;;22.40;74.40;;;;;;6245039;22;20035;-75
2022/07/12 07:40:29;;;;;;;0.47;0.47;;;22.40;74.40;;;;;;6242647;23;20015;-75
2022/07/12 07:42:54;;;;;;;0.35;0.35;;;22.60;74.30;;;;;;6244252;23;20066;-75
2022/07/12 07:45:20;;;;;;;0.40;0.40;;;22.80;74.30;;;;;;6244908;23;20015;-75
2022/07/12 07:47:48;;;;;;;0.30;0.30;;;22.80;74.40;;;;;;6245523;23;20015;-75
2022/07/12 07:50:31;;;;;;;0.50;0.50;;;22.80;74.50;;;;;;6217626;23;20327;-76
2022/07/12 07:52:57;;;;;;;0.50;0.50;;;22.80;74.50;;;;;;6244030;23;20008;-76
2022/07/12 07:55:23;;;;;;;0.50;0.47;;;22.80;74.90;;;;;;6245180;23;20015;-74
2022/07/12 07:57:49;;;;;;;0.52;0.52;;;22.70;75.10;;;;;;6245019;23;20012;-75
2022/07/12 08:00:15;;;;;;;0.60;0.60;;;22.90;75.10;;;;;;6244977;23;20012;-75
2022/07/12 08:02:41;;;;;;;0.52;0.52;;;22.80;75.00;;;;;;6246412;22;20577;-75
2022/07/12 08:08:39;;;;;;;0.70;0.70;;;23.40;74.40;;;;;;6203194;23;20099;-75
2022/07/12 08:11:13;;;;;;;0.60;0.60;;;23.80;73.80;;;;;;6218158;23;20019;-75
2022/07/12 08:14:27;;;;;;;0.60;0.60;;;23.90;73.50;;;;;;6221560;23;20012;-77
2022/07/12 08:16:53;;;;;;;0.40;0.40;;;24.10;73.00;;;;;;6178569;23;20012;-77
2022/07/12 08:19:19;;;;;;;0.63;0.63;;;24.10;72.90;;;;;;6157832;23;20048;-75
2022/07/12 08:21:45;;;;;;;0.60;0.55;;;23.90;73.20;;;;;;6157109;23;20056;-74
2022/07/12 08:24:11;;;;;;;0.40;0.40;;;24.10;73.50;;;;;;6182188;23;20109;-74
2022/07/12 08:26:37;;;;;;;0.60;0.60;;;24.20;73.30;;;;;;6157141;23;20016;-74
2022/07/12 08:29:02;;;;;;;0.40;0.40;;;24.20;73.10;;;;;;6157106;23;20023;-74
2022/07/12 08:31:28;;;;;;;0.85;0.70;;;24.50;73.00;;;;;;6156791;23;20009;-74
2022/07/12 08:33:54;;;;;;;0.60;0.60;;;24.60;72.70;;;;;;6156966;23;20385;-73
2022/07/12 08:36:22;;;;;;;0.57;0.40;;;24.80;72.30;;;;;;6182450;23;20016;-73
2022/07/12 08:38:48;;;;;;;0.40;0.40;;;25.00;72.20;;;;;;6157535;23;20176;-74
2022/07/12 08:41:15;;;;;;;1.30;0.50;;;25.10;72.00;;;;;;6181748;23;20048;-73
2022/07/12 08:43:41;;;;;;;0.60;0.60;;;25.10;71.90;;;;;;6132410;23;20016;-73
2022/07/12 08:46:09;;;;;;;0.75;0.75;;;25.20;71.80;;;;;;6182367;23;20017;-73
2022/07/12 08:48:36;;;;;;;0.43;0.43;;;25.20;71.40;;;;;;6156822;23;20009;-73
2022/07/12 08:51:05;;;;;;;0.63;0.60;;;25.30;71.20;;;;;;6157169;23;20013;-76
2022/07/12 08:54:13;;;;;;;0.35;0.35;;;25.30;71.40;;;;;;6217623;23;20087;-77
2022/07/12 08:56:47;;;;;;;0.70;0.55;;;25.10;71.60;;;;;;6242965;23;20444;-73
2022/07/12 08:59:20;;;;;;;0.30;0.30;;;25.20;71.90;;;;;;6219697;23;20367;-74
2022/07/12 09:01:51;;;;;;;0.35;0.35;;;25.30;71.60;;;;;;6245497;22;20000;-74
2022/07/12 09:04:22;;;;;;;0.40;0.40;;;25.30;71.30;;;;;;6246169;22;20012;-76
2022/07/12 09:06:48;;;;;;;0.52;0.50;;;25.30;71.20;;;;;;6245052;23;20455;-73
2022/07/12 09:09:27;;;;;;;0.50;0.50;;;25.50;71.30;;;;;;6245955;22;20451;-73
2022/07/12 09:11:53;;;;;;;0.50;0.50;;;25.60;70.70;;;;;;6245584;22;20082;-73
2022/07/12 09:14:20;;;;;;;0.40;0.40;;;25.70;70.30;;;;;;6246103;22;20371;-72
2022/07/12 09:17:00;;;;;;;0.45;0.40;;;25.90;70.00;;;;;;6244527;23;20007;-71
2022/07/12 09:19:26;;;;;;;0.32;0.32;;;26.00;69.50;;;;;;6244030;23;20039;-73
2022/07/12 09:21:54;;;;;;;0.38;0.38;;;26.10;69.60;;;;;;6246046;23;20432;-74
2022/07/12 09:24:24;;;;;;;0.50;0.50;;;26.10;69.30;;;;;;6244571;23;20039;-73
2022/07/12 09:26:59;;;;;;;0.40;0.40;;;26.30;69.20;;;;;;6245632;23;20047;-73
2022/07/12 09:29:25;;;;;;;0.40;0.40;;;26.40;69.00;;;;;;6243786;23;20012;-73
2022/07/12 09:37:12;;;;;;;0.50;0.40;;;26.50;68.40;;;;;;6245690;22;20020;-73
2022/07/12 09:39:38;;;;;;;0.30;0.30;;;26.60;68.40;;;;;;6244079;23;20023;-73
2022/07/12 09:42:07;;;;;;;0.30;0.30;;;26.70;68.30;;;;;;6244128;23;20011;-74
2022/07/12 09:44:36;;;;;;;0.30;0.30;;;26.70;68.00;;;;;;6244500;23;20013;-74
2022/07/12 09:47:03;;;;;;;1.48;0.43;;;26.80;67.80;;;;;;6244165;23;20009;-73
2022/07/12 09:49:29;;;;;;;0.43;0.43;;;27.00;67.60;;;;;;6246184;22;20045;-75
2022/07/12 09:51:56;;;;;;;0.30;0.30;;;26.80;67.40;;;;;;6246042;22;20004;-74
2022/07/12 09:54:27;;;;;;;0.55;0.50;;;26.80;67.60;;;;;;6245446;22;20325;-74
2022/07/12 09:56:57;;;;;;;0.40;0.40;;;26.90;67.40;;;;;;6246335;22;20313;-73
2022/07/12 09:59:23;;;;;;;;;;;27.00;67.10;;;;;;6246665;22;20435;-74
2022/07/12 10:02:09;;;;;;;0.50;0.50;;;27.00;67.20;;;;;;6246153;22;19937;-73
2022/07/12 10:04:36;;;;;;;0.40;0.40;;;27.00;67.30;;;;;;6158910;23;20099;-73
2022/07/12 10:07:31;;;;;;;0.70;0.68;;;27.00;66.90;;;;;;6156769;23;20040;-74
2022/07/12 10:09:57;;;;;;;0.40;0.40;;;27.00;66.70;;;;;;6159900;23;20068;-75
2022/07/12 10:12:23;;;;;;;0.40;0.40;;;26.90;66.80;;;;;;6182060;23;20013;-75
2022/07/12 10:14:56;;;;;;;0.30;0.30;;;27.00;66.70;;;;;;6183215;23;20041;-73
2022/07/12 10:17:30;;;;;;;0.40;0.40;;;27.20;66.30;;;;;;6182334;23;20009;-73
2022/07/12 10:20:17;;;;;;;4.13;0.65;;;27.50;66.10;;;;;;6159066;23;20417;-73
2022/07/12 10:23:26;;;;;;;0.50;0.50;;;27.70;65.40;;;;;;6181894;23;20012;-75
2022/07/12 10:25:52;;;;;;;0.40;0.40;;;27.70;65.30;;;;;;6152093;23;20442;-75
2022/07/12 10:28:18;;;;;;;0.52;0.52;;;27.70;65.40;;;;;;6160420;23;20020;-73
2022/07/12 10:30:55;;;;;;;0.32;0.32;;;27.60;65.10;;;;;;6186895;23;20008;-76
2022/07/12 10:33:25;;;;;;;0.63;0.63;;;27.70;65.30;;;;;;6162657;23;20008;-72
2022/07/12 10:36:05;;;;;;;0.40;0.40;;;27.80;65.10;;;;;;6212404;23;20019;-73
2022/07/12 10:38:32;;;;;;;0.50;0.50;;;27.90;64.80;;;;;;6100536;23;20014;-74
2022/07/12 10:41:20;;;;;;;0.47;0.47;;;27.90;64.70;;;;;;6046010;23;20119;-73
2022/07/12 10:44:05;;;;;;;0.35;0.35;;;27.90;64.50;;;;;;6015880;23;20170;-73
2022/07/12 10:46:33;;;;;;;0.40;0.40;;;27.90;64.50;;;;;;6094648;23;20010;-75
2022/07/12 10:49:26;;;;;;;0.50;0.30;;;28.10;64.50;;;;;;6093981;23;20026;-72
2022/07/12 10:52:15;;;;;;;0.40;0.40;;;28.20;64.00;;;;;;6094584;23;20034;-73
2022/07/12 10:54:53;;;;;;;0.50;0.50;;;28.40;63.90;;;;;;6118048;23;20095;-74
2022/07/12 10:57:42;;;;;;;0.40;0.40;;;28.40;63.60;;;;;;6169010;23;20430;-74
2022/07/12 11:00:09;;;;;;;0.40;0.40;;;28.30;63.70;;;;;;6123807;23;20014;-73
2022/07/12 11:02:35;;;;;;;0.60;0.60;;;28.20;63.60;;;;;;6123126;23;20242;-74
2022/07/12 11:05:01;;;;;;;0.40;0.40;;;28.20;63.70;;;;;;6119897;23;20029;-72
2022/07/12 11:07:27;;;;;;;0.22;0.22;;;28.20;63.60;;;;;;6123523;23;20492;-72
2022/07/12 11:09:55;;;;;;;0.32;0.32;;;28.30;63.40;;;;;;6162388;23;20017;-73
2022/07/12 11:12:28;;;;;;;0.57;0.40;;;28.40;63.20;;;;;;6182131;23;20075;-73
2022/07/12 11:14:54;;;;;;;0.40;0.40;;;28.50;63.10;;;;;;6191805;23;20020;-74
2022/07/12 11:17:27;;;;;;;0.55;0.50;;;28.50;62.80;;;;;;6218127;23;20446;-74
2022/07/12 11:20:06;;;;;;;0.47;0.47;;;28.50;62.70;;;;;;6243668;23;20008;-73
2022/07/12 11:22:32;;;;;;;0.43;0.43;;;28.50;62.50;;;;;;6245532;22;20065;-74
2022/07/12 11:24:59;;;;;;;0.55;0.52;;;28.50;62.60;;;;;;6242881;23;20019;-72
2022/07/12 11:27:27;;;;;;;0.50;0.50;;;28.70;62.30;;;;;;6243697;23;20040;-72
2022/07/12 11:29:58;;;;;;;0.60;0.60;;;28.70;61.90;;;;;;6245606;22;20547;-73
2022/07/12 11:32:36;;;;;;;0.50;0.50;;;28.80;61.70;;;;;;6245080;23;20008;-73
2022/07/12 11:35:19;;;;;;;0.60;0.60;;;28.80;61.70;;;;;;6244956;22;20004;-72
2022/07/12 11:37:50;;;;;;;0.75;0.75;;;28.80;61.50;;;;;;6211832;23;20025;-72
2022/07/12 11:40:25;;;;;;;0.50;0.50;;;28.80;62.10;;;;;;6161780;23;20441;-73
2022/07/12 11:42:59;;;;;;;0.57;0.57;;;28.70;61.60;;;;;;6159168;23;20017;-73
2022/07/12 11:45:29;;;;;;;0.60;0.60;;;28.70;61.80;;;;;;6155225;23;20016;-73
2022/07/12 11:47:58;;;;;;;0.40;0.40;;;28.70;61.70;;;;;;6132786;23;20104;-73
2022/07/12 11:50:52;;;;;;;0.35;0.35;;;28.80;61.60;;;;;;6157068;23;20025;-74
2022/07/12 11:53:23;;;;;;;0.57;0.57;;;28.80;61.30;;;;;;6181967;23;20012;-74
2022/07/12 11:55:51;;;;;;;0.50;0.50;;;28.90;61.30;;;;;;6109394;23;20013;-74
2022/07/12 11:58:23;;;;;;;0.50;0.50;;;28.80;61.10;;;;;;6182506;23;20040;-75
2022/07/12 12:01:56;;;;;;;0.63;0.63;;;28.90;61.20;;;;;;6179782;23;20092;-73
2022/07/12 12:04:22;;;;;;;0.60;0.60;;;28.90;61.00;;;;;;6093262;23;20018;-74
2022/07/12 12:34:31;;;;;;;0.50;0.50;;;28.80;60.60;;;;;;5171897;27;20148;-74
2022/07/12 12:37:03;;;;;;;0.50;0.50;;;28.60;61.10;;;;;;5152524;27;20427;-74
2022/07/12 12:39:30;;;;;;;0.55;0.52;;;28.40;61.10;;;;;;5152418;27;20070;-75
2022/07/12 12:41:56;;;;;;;0.60;0.60;;;28.40;61.80;;;;;;5171471;27;20054;-75
2022/07/12 12:44:23;;;;;;;0.60;0.60;;;28.50;60.90;;;;;;5170881;27;20035;-76
2022/07/12 12:46:55;;;;;;;0.50;0.50;;;28.50;60.80;;;;;;5170788;27;20057;-76
2022/07/12 12:49:49;;;;;;;0.57;0.57;;;28.50;60.50;;;;;;5168225;27;20486;-76
2022/07/12 12:52:17;;;;;;;0.60;0.60;;;28.50;60.50;;;;;;5170250;27;20038;-76
2022/07/12 12:54:55;;;;;;;0.50;0.50;;;28.40;60.50;;;;;;5170641;27;20121;-74
2022/07/12 13:01:01;;;;;;;0.45;0.45;;;28.40;60.20;;;;;;4991907;28;20054;-75
2022/07/12 13:03:29;;;;;;;0.60;0.60;;;28.30;60.30;;;;;;4992155;28;20037;-75
2022/07/12 13:06:01;;;;;;;0.90;0.70;;;28.40;60.20;;;;;;4989131;28;20044;-74
2022/07/12 13:08:33;;;;;;;0.68;0.68;;;28.40;60.60;;;;;;5000474;28;20585;-75
2022/07/12 13:13:40;;;;;;;0.43;0.43;;;28.50;59.60;;;;;;4988959;28;20030;-75
2022/07/12 13:18:52;;;;;;;0.63;0.63;;;28.50;59.20;;;;;;4993977;28;20088;-73
2022/07/12 13:21:18;;;;;;;0.65;0.65;;;28.40;59.20;;;;;;5010729;28;20046;-73
2022/07/12 13:23:44;;;;;;;0.60;0.60;;;28.50;59.20;;;;;;5011463;28;20046;-74
2022/07/12 13:26:10;;;;;;;0.30;0.30;;;28.40;59.10;;;;;;5011545;28;20057;-73
2022/07/12 13:28:35;;;;;;;0.52;0.52;;;28.50;59.60;;;;;;5012211;28;20038;-74
2022/07/12 13:31:08;;;;;;;0.40;0.40;;;28.50;58.90;;;;;;5014836;28;20446;-74
2022/07/12 13:33:34;;;;;;;0.60;0.60;;;28.50;58.70;;;;;;5005079;28;20050;-76
2022/07/12 13:36:00;;;;;;;0.60;0.60;;;28.40;58.70;;;;;;4985444;28;20056;-75
2022/07/12 13:38:29;;;;;;;0.50;0.50;;;28.50;58.70;;;;;;5091495;28;20047;-75
2022/07/12 13:40:54;;;;;;;0.50;0.50;;;28.50;58.70;;;;;;5078672;28;20040;-74
2022/07/12 13:43:23;;;;;;;0.70;0.70;;;28.40;58.70;;;;;;5112653;28;20533;-75
2022/07/12 13:45:50;;;;;;;0.65;0.50;;;28.30;58.70;;;;;;5113572;28;20035;-75
2022/07/12 13:48:19;;;;;;;0.50;0.50;;;28.30;58.60;;;;;;5111937;28;20039;-76
2022/07/12 13:50:48;;;;;;;0.85;0.85;;;28.30;58.60;;;;;;5114736;28;20101;-75
2022/07/12 13:53:14;;;;;;;0.90;0.90;;;28.20;58.50;;;;;;5113169;28;20052;-75
2022/07/12 13:55:47;;;;;;;0.80;0.80;;;28.10;58.50;;;;;;5126034;28;20047;-75
2022/07/12 13:58:14;;;;;;;1.48;0.60;;;28.20;58.50;;;;;;5115007;28;20093;-74
2022/07/12 14:00:41;;;;;;;0.60;0.60;;;28.20;58.30;;;;;;5115890;28;20074;-74
2022/07/12 14:03:10;;;;;;;0.50;0.50;;;28.30;58.20;;;;;;5112934;28;20051;-75
2022/07/12 14:05:41;;;;;;;0.55;0.55;;;28.40;58.10;;;;;;5112490;28;20108;-76
2022/07/12 14:08:06;;;;;;;0.60;0.60;;;28.30;58.10;;;;;;5100508;28;20131;-74
2022/07/12 14:10:36;;;;;;;0.45;0.45;;;28.30;58.10;;;;;;5115090;28;20047;-74
2022/07/12 14:13:04;;;;;;;0.50;0.50;;;28.20;58.10;;;;;;5116408;28;20042;-74
2022/07/12 14:15:36;;;;;;;0.50;0.50;;;28.30;58.00;;;;;;5120286;28;20046;-77
2022/07/12 14:18:05;;;;;;;0.60;0.60;;;28.40;58.00;;;;;;5120514;28;20490;-74